sensor_id;sensor_type;location;lat;lon;timestamp;pressure;altitude;pressure_sealevel;temperature;humidity
79645;BME280;69117;47.148;18.954;2024-01-06T00:01:37;99584.69;;;4.29;100.00
79645;BME280;69117;47.148;18.954;2024-01-06T00:04:38;99571.94;;;4.15;100.00
79645;BME280;69117;47.148;18.954;2024-01-06T00:07:40;99585.81;;;4.16;100.00
79645;BME280;69117;47.148;18.954;2024-01-06T00:10:42;99571.22;;;4.02;100.00
79645;BME280;69117;47.148;18.954;2024-01-06T00:13:43;99583.13;;;4.06;100.00
79645;BME280;69117;47.148;18.954;2024-01-06T00:16:45;99576.78;;;4.08;100.00
79645;BME280;69117;47.148;18.954;2024-01-06T00:19:46;99573.59;;;4.05;100.00
79645;BME280;69117;47.148;18.954;2024-01-06T00:22:52;99571.38;;;4.00;100.00
79645;BME280;69117;47.148;18.954;2024-01-06T00:25:54;99567.22;;;3.98;100.00
79645;BME280;69117;47.148;18.954;2024-01-06T00:28:55;99557.72;;;3.85;100.00
79645;BME280;69117;47.148;18.954;2024-01-06T00:31:57;99562.25;;;3.83;100.00
79645;BME280;69117;47.148;18.954;2024-01-06T00:34:59;99569.72;;;3.77;100.00
79645;BME280;69117;47.148;18.954;2024-01-06T00:38:00;99565.72;;;3.73;100.00
79645;BME280;69117;47.148;18.954;2024-01-06T00:41:02;99569.50;;;3.80;100.00
79645;BME280;69117;47.148;18.954;2024-01-06T00:44:04;99571.28;;;3.79;100.00
79645;BME280;69117;47.148;18.954;2024-01-06T00:47:05;99584.56;;;3.87;100.00
79645;BME280;69117;47.148;18.954;2024-01-06T00:50:07;99576.25;;;3.94;100.00
79645;BME280;69117;47.148;18.954;2024-01-06T00:53:09;99576.00;;;3.97;100.00
79645;BME280;69117;47.148;18.954;2024-01-06T00:56:10;99579.78;;;4.04;100.00
79645;BME280;69117;47.148;18.954;2024-01-06T00:59:12;99569.19;;;4.05;100.00
79645;BME280;69117;47.148;18.954;2024-01-06T01:02:14;99571.22;;;4.13;100.00
79645;BME280;69117;47.148;18.954;2024-01-06T01:05:15;99561.47;;;4.15;100.00
79645;BME280;69117;47.148;18.954;2024-01-06T01:08:17;99563.94;;;4.17;100.00
79645;BME280;69117;47.148;18.954;2024-01-06T01:11:19;99565.38;;;4.21;100.00
79645;BME280;69117;47.148;18.954;2024-01-06T01:14:21;99555.03;;;4.19;100.00
79645;BME280;69117;47.148;18.954;2024-01-06T01:17:23;99549.34;;;4.14;100.00
79645;BME280;69117;47.148;18.954;2024-01-06T01:20:24;99550.38;;;4.23;100.00
79645;BME280;69117;47.148;18.954;2024-01-06T01:23:26;99561.06;;;4.31;100.00
79645;BME280;69117;47.148;18.954;2024-01-06T01:26:28;99555.59;;;4.34;100.00
79645;BME280;69117;47.148;18.954;2024-01-06T01:29:29;99550.94;;;4.38;100.00
79645;BME280;69117;47.148;18.954;2024-01-06T01:32:31;99548.22;;;4.39;100.00
79645;BME280;69117;47.148;18.954;2024-01-06T01:35:33;99540.78;;;4.44;100.00
79645;BME280;69117;47.148;18.954;2024-01-06T01:38:35;99537.94;;;4.47;100.00
79645;BME280;69117;47.148;18.954;2024-01-06T01:41:36;99545.16;;;4.55;100.00
79645;BME280;69117;47.148;18.954;2024-01-06T01:44:38;99536.91;;;4.59;100.00
79645;BME280;69117;47.148;18.954;2024-01-06T01:47:39;99538.34;;;4.64;100.00
79645;BME280;69117;47.148;18.954;2024-01-06T01:50:42;99544.97;;;4.68;100.00
79645;BME280;69117;47.148;18.954;2024-01-06T01:53:44;99533.28;;;4.72;100.00
79645;BME280;69117;47.148;18.954;2024-01-06T01:56:46;99533.88;;;4.75;100.00
79645;BME280;69117;47.148;18.954;2024-01-06T01:59:48;99533.03;;;4.75;100.00
79645;BME280;69117;47.148;18.954;2024-01-06T02:02:50;99530.31;;;4.76;100.00
79645;BME280;69117;47.148;18.954;2024-01-06T02:05:52;99507.00;;;4.73;100.00
79645;BME280;69117;47.148;18.954;2024-01-06T02:08:54;99513.53;;;4.79;100.00
79645;BME280;69117;47.148;18.954;2024-01-06T02:11:58;99507.00;;;4.73;100.00
79645;BME280;69117;47.148;18.954;2024-01-06T02:15:00;99507.84;;;4.74;100.00
79645;BME280;69117;47.148;18.954;2024-01-06T02:18:02;99503.38;;;4.65;100.00
79645;BME280;69117;47.148;18.954;2024-01-06T02:21:06;99495.72;;;4.73;100.00
79645;BME280;69117;47.148;18.954;2024-01-06T02:24:08;99500.69;;;4.76;100.00
79645;BME280;69117;47.148;18.954;2024-01-06T02:27:09;99492.53;;;4.69;100.00
79645;BME280;69117;47.148;18.954;2024-01-06T02:30:11;99498.75;;;4.78;100.00
79645;BME280;69117;47.148;18.954;2024-01-06T02:33:13;99494.91;;;4.72;100.00
79645;BME280;69117;47.148;18.954;2024-01-06T02:36:15;99478.50;;;4.70;100.00
79645;BME280;69117;47.148;18.954;2024-01-06T02:39:17;99494.50;;;4.77;100.00
79645;BME280;69117;47.148;18.954;2024-01-06T02:42:19;99492.59;;;4.79;100.00
79645;BME280;69117;47.148;18.954;2024-01-06T02:45:21;99477.00;;;4.77;100.00
79645;BME280;69117;47.148;18.954;2024-01-06T02:48:23;99469.03;;;4.79;100.00
79645;BME280;69117;47.148;18.954;2024-01-06T02:51:24;99461.97;;;4.70;100.00
79645;BME280;69117;47.148;18.954;2024-01-06T02:54:26;99466.81;;;4.74;100.00
79645;BME280;69117;47.148;18.954;2024-01-06T02:57:29;99445.81;;;4.65;100.00
79645;BME280;69117;47.148;18.954;2024-01-06T03:00:32;99437.16;;;4.64;100.00
79645;BME280;69117;47.148;18.954;2024-01-06T03:03:33;99443.53;;;4.71;100.00
79645;BME280;69117;47.148;18.954;2024-01-06T03:06:35;99443.78;;;4.68;100.00
79645;BME280;69117;47.148;18.954;2024-01-06T03:09:37;99441.88;;;4.70;100.00
79645;BME280;69117;47.148;18.954;2024-01-06T03:12:40;99457.31;;;4.73;100.00
79645;BME280;69117;47.148;18.954;2024-01-06T03:15:42;99464.19;;;4.74;100.00
79645;BME280;69117;47.148;18.954;2024-01-06T03:18:43;99453.03;;;4.72;100.00
79645;BME280;69117;47.148;18.954;2024-01-06T03:21:45;99432.31;;;4.59;100.00
79645;BME280;69117;47.148;18.954;2024-01-06T03:24:47;99456.59;;;4.71;100.00
79645;BME280;69117;47.148;18.954;2024-01-06T03:27:49;99456.03;;;4.68;100.00
79645;BME280;69117;47.148;18.954;2024-01-06T03:30:51;99466.38;;;4.69;100.00
79645;BME280;69117;47.148;18.954;2024-01-06T03:33:52;99467.47;;;4.67;100.00
79645;BME280;69117;47.148;18.954;2024-01-06T03:36:56;99477.53;;;4.71;100.00
79645;BME280;69117;47.148;18.954;2024-01-06T03:39:57;99471.22;;;4.74;100.00
79645;BME280;69117;47.148;18.954;2024-01-06T03:42:59;99469.97;;;4.78;100.00
79645;BME280;69117;47.148;18.954;2024-01-06T03:46:01;99465.34;;;4.81;100.00
79645;BME280;69117;47.148;18.954;2024-01-06T03:49:03;99467.00;;;4.82;100.00
79645;BME280;69117;47.148;18.954;2024-01-06T03:52:05;99452.06;;;4.73;100.00
79645;BME280;69117;47.148;18.954;2024-01-06T03:55:07;99462.13;;;4.78;100.00
79645;BME280;69117;47.148;18.954;2024-01-06T03:58:09;99461.47;;;4.76;100.00
79645;BME280;69117;47.148;18.954;2024-01-06T04:01:10;99469.47;;;4.84;100.00
79645;BME280;69117;47.148;18.954;2024-01-06T04:04:13;99478.16;;;4.85;100.00
79645;BME280;69117;47.148;18.954;2024-01-06T04:07:15;99469.88;;;4.79;100.00
79645;BME280;69117;47.148;18.954;2024-01-06T04:10:16;99461.06;;;4.80;100.00
79645;BME280;69117;47.148;18.954;2024-01-06T04:13:18;99481.34;;;4.88;100.00
79645;BME280;69117;47.148;18.954;2024-01-06T04:16:20;99481.22;;;4.90;100.00
79645;BME280;69117;47.148;18.954;2024-01-06T04:19:21;99468.38;;;4.87;100.00
79645;BME280;69117;47.148;18.954;2024-01-06T04:22:24;99467.19;;;4.91;100.00
79645;BME280;69117;47.148;18.954;2024-01-06T04:25:25;99473.75;;;4.85;100.00
79645;BME280;69117;47.148;18.954;2024-01-06T04:28:27;99458.78;;;4.66;100.00
79645;BME280;69117;47.148;18.954;2024-01-06T04:31:29;99469.16;;;4.77;100.00
79645;BME280;69117;47.148;18.954;2024-01-06T04:34:31;99455.97;;;4.79;100.00
79645;BME280;69117;47.148;18.954;2024-01-06T04:37:35;99464.94;;;4.86;100.00
79645;BME280;69117;47.148;18.954;2024-01-06T04:40:36;99450.31;;;4.83;100.00
79645;BME280;69117;47.148;18.954;2024-01-06T04:43:38;99463.47;;;4.93;100.00
79645;BME280;69117;47.148;18.954;2024-01-06T04:46:39;99451.03;;;4.86;100.00
79645;BME280;69117;47.148;18.954;2024-01-06T04:49:41;99459.97;;;4.83;100.00
79645;BME280;69117;47.148;18.954;2024-01-06T04:52:43;99461.69;;;4.94;100.00
79645;BME280;69117;47.148;18.954;2024-01-06T04:55:45;99445.16;;;4.93;100.00
79645;BME280;69117;47.148;18.954;2024-01-06T04:58:47;99463.91;;;4.98;100.00
79645;BME280;69117;47.148;18.954;2024-01-06T05:01:48;99472.72;;;4.97;100.00
79645;BME280;69117;47.148;18.954;2024-01-06T05:04:50;99461.16;;;5.00;100.00
79645;BME280;69117;47.148;18.954;2024-01-06T05:07:52;99446.66;;;4.96;100.00
79645;BME280;69117;47.148;18.954;2024-01-06T05:10:54;99447.53;;;4.96;100.00
79645;BME280;69117;47.148;18.954;2024-01-06T05:13:56;99447.25;;;4.99;100.00
79645;BME280;69117;47.148;18.954;2024-01-06T05:16:58;99451.00;;;5.07;100.00
79645;BME280;69117;47.148;18.954;2024-01-06T05:20:00;99444.13;;;5.05;100.00
79645;BME280;69117;47.148;18.954;2024-01-06T05:23:01;99463.66;;;5.11;100.00
79645;BME280;69117;47.148;18.954;2024-01-06T05:26:03;99452.38;;;5.11;100.00
79645;BME280;69117;47.148;18.954;2024-01-06T05:29:05;99442.13;;;4.98;100.00
79645;BME280;69117;47.148;18.954;2024-01-06T05:32:07;99449.19;;;5.07;100.00
79645;BME280;69117;47.148;18.954;2024-01-06T05:35:09;99451.81;;;5.07;100.00
79645;BME280;69117;47.148;18.954;2024-01-06T05:38:11;99453.34;;;5.10;100.00
79645;BME280;69117;47.148;18.954;2024-01-06T05:41:13;99450.47;;;5.13;100.00
79645;BME280;69117;47.148;18.954;2024-01-06T05:44:15;99455.56;;;5.14;100.00
79645;BME280;69117;47.148;18.954;2024-01-06T05:47:16;99459.84;;;5.15;100.00
79645;BME280;69117;47.148;18.954;2024-01-06T05:50:18;99482.06;;;5.21;100.00
79645;BME280;69117;47.148;18.954;2024-01-06T05:53:20;99477.91;;;5.18;100.00
79645;BME280;69117;47.148;18.954;2024-01-06T05:56:25;99491.44;;;5.23;100.00
79645;BME280;69117;47.148;18.954;2024-01-06T05:59:27;99468.53;;;5.16;100.00
79645;BME280;69117;47.148;18.954;2024-01-06T06:02:29;99477.22;;;5.26;100.00
79645;BME280;69117;47.148;18.954;2024-01-06T06:05:31;99434.09;;;5.20;100.00
79645;BME280;69117;47.148;18.954;2024-01-06T06:08:33;99445.66;;;5.18;100.00
79645;BME280;69117;47.148;18.954;2024-01-06T06:11:34;99458.59;;;5.10;100.00
79645;BME280;69117;47.148;18.954;2024-01-06T06:14:36;99446.59;;;5.07;100.00
79645;BME280;69117;47.148;18.954;2024-01-06T06:17:38;99446.47;;;5.09;100.00
79645;BME280;69117;47.148;18.954;2024-01-06T06:20:40;99434.84;;;5.01;100.00
79645;BME280;69117;47.148;18.954;2024-01-06T06:23:43;99443.25;;;5.05;100.00
79645;BME280;69117;47.148;18.954;2024-01-06T06:26:44;99435.56;;;5.03;100.00
79645;BME280;69117;47.148;18.954;2024-01-06T06:29:46;99431.81;;;4.96;100.00
79645;BME280;69117;47.148;18.954;2024-01-06T06:32:48;99419.94;;;4.92;100.00
79645;BME280;69117;47.148;18.954;2024-01-06T06:35:50;99419.97;;;5.02;100.00
79645;BME280;69117;47.148;18.954;2024-01-06T06:38:51;99406.06;;;5.01;100.00
79645;BME280;69117;47.148;18.954;2024-01-06T06:41:54;99415.88;;;5.09;100.00
79645;BME280;69117;47.148;18.954;2024-01-06T06:44:56;99412.72;;;5.15;100.00
79645;BME280;69117;47.148;18.954;2024-01-06T06:47:57;99433.78;;;5.14;100.00
79645;BME280;69117;47.148;18.954;2024-01-06T06:50:59;99440.81;;;5.13;100.00
79645;BME280;69117;47.148;18.954;2024-01-06T06:54:01;99461.91;;;5.12;100.00
79645;BME280;69117;47.148;18.954;2024-01-06T06:57:03;99461.91;;;5.12;100.00
79645;BME280;69117;47.148;18.954;2024-01-06T07:00:05;99456.41;;;5.15;100.00
79645;BME280;69117;47.148;18.954;2024-01-06T07:03:08;99435.13;;;5.08;100.00
79645;BME280;69117;47.148;18.954;2024-01-06T07:06:13;99439.00;;;5.04;100.00
79645;BME280;69117;47.148;18.954;2024-01-06T07:09:17;99445.09;;;5.14;100.00
79645;BME280;69117;47.148;18.954;2024-01-06T07:12:22;99452.00;;;5.15;100.00
79645;BME280;69117;47.148;18.954;2024-01-06T07:15:24;99452.13;;;5.14;100.00
79645;BME280;69117;47.148;18.954;2024-01-06T07:18:26;99438.47;;;5.10;100.00
79645;BME280;69117;47.148;18.954;2024-01-06T07:21:28;99439.69;;;5.06;100.00
79645;BME280;69117;47.148;18.954;2024-01-06T07:24:29;99447.16;;;5.20;100.00
79645;BME280;69117;47.148;18.954;2024-01-06T07:27:31;99423.06;;;5.17;100.00
79645;BME280;69117;47.148;18.954;2024-01-06T07:30:34;99419.63;;;5.16;100.00
79645;BME280;69117;47.148;18.954;2024-01-06T07:33:36;99435.34;;;5.26;100.00
79645;BME280;69117;47.148;18.954;2024-01-06T07:36:38;99442.00;;;5.30;100.00
79645;BME280;69117;47.148;18.954;2024-01-06T07:39:41;99447.63;;;5.35;100.00
79645;BME280;69117;47.148;18.954;2024-01-06T07:42:44;99441.72;;;5.33;100.00
79645;BME280;69117;47.148;18.954;2024-01-06T07:45:46;99429.56;;;5.32;100.00
79645;BME280;69117;47.148;18.954;2024-01-06T07:48:47;99430.44;;;5.33;100.00
79645;BME280;69117;47.148;18.954;2024-01-06T07:51:49;99434.97;;;5.40;100.00
79645;BME280;69117;47.148;18.954;2024-01-06T07:54:51;99426.28;;;5.40;100.00
79645;BME280;69117;47.148;18.954;2024-01-06T07:57:55;99429.19;;;5.46;100.00
79645;BME280;69117;47.148;18.954;2024-01-06T08:00:57;99437.06;;;5.56;100.00
79645;BME280;69117;47.148;18.954;2024-01-06T08:03:59;99426.88;;;5.53;100.00
79645;BME280;69117;47.148;18.954;2024-01-06T08:07:01;99443.28;;;5.65;100.00
79645;BME280;69117;47.148;18.954;2024-01-06T08:10:03;99441.22;;;5.68;100.00
79645;BME280;69117;47.148;18.954;2024-01-06T08:13:06;99438.06;;;5.74;100.00
79645;BME280;69117;47.148;18.954;2024-01-06T08:16:08;99423.03;;;5.67;100.00
79645;BME280;69117;47.148;18.954;2024-01-06T08:19:10;99422.22;;;5.66;100.00
79645;BME280;69117;47.148;18.954;2024-01-06T08:22:12;99439.47;;;5.79;100.00
79645;BME280;69117;47.148;18.954;2024-01-06T08:25:13;99445.38;;;5.81;100.00
79645;BME280;69117;47.148;18.954;2024-01-06T08:28:15;99446.63;;;5.86;100.00
79645;BME280;69117;47.148;18.954;2024-01-06T08:31:17;99441.38;;;5.86;100.00
79645;BME280;69117;47.148;18.954;2024-01-06T08:34:19;99434.34;;;5.87;100.00
79645;BME280;69117;47.148;18.954;2024-01-06T08:37:21;99448.34;;;5.97;100.00
79645;BME280;69117;47.148;18.954;2024-01-06T08:40:22;99426.63;;;5.85;100.00
79645;BME280;69117;47.148;18.954;2024-01-06T08:43:24;99435.75;;;5.91;100.00
79645;BME280;69117;47.148;18.954;2024-01-06T08:46:26;99431.31;;;5.91;100.00
79645;BME280;69117;47.148;18.954;2024-01-06T08:49:27;99444.75;;;5.98;100.00
79645;BME280;69117;47.148;18.954;2024-01-06T08:52:29;99446.81;;;5.94;100.00
79645;BME280;69117;47.148;18.954;2024-01-06T08:55:31;99458.28;;;6.03;100.00
79645;BME280;69117;47.148;18.954;2024-01-06T08:58:33;99461.88;;;6.02;100.00
79645;BME280;69117;47.148;18.954;2024-01-06T09:01:34;99451.94;;;6.06;100.00
79645;BME280;69117;47.148;18.954;2024-01-06T09:04:37;99455.63;;;6.13;100.00
79645;BME280;69117;47.148;18.954;2024-01-06T09:07:39;99455.53;;;6.14;100.00
79645;BME280;69117;47.148;18.954;2024-01-06T09:10:41;99452.06;;;6.24;100.00
79645;BME280;69117;47.148;18.954;2024-01-06T09:13:44;99440.34;;;6.18;100.00
79645;BME280;69117;47.148;18.954;2024-01-06T09:16:46;99454.13;;;6.30;100.00
79645;BME280;69117;47.148;18.954;2024-01-06T09:19:47;99462.53;;;6.33;100.00
79645;BME280;69117;47.148;18.954;2024-01-06T09:22:50;99462.66;;;6.32;100.00
79645;BME280;69117;47.148;18.954;2024-01-06T09:25:51;99447.50;;;6.16;100.00
79645;BME280;69117;47.148;18.954;2024-01-06T09:28:54;99433.69;;;6.14;100.00
79645;BME280;69117;47.148;18.954;2024-01-06T09:31:55;99456.19;;;6.26;100.00
79645;BME280;69117;47.148;18.954;2024-01-06T09:34:59;99460.59;;;6.26;100.00
79645;BME280;69117;47.148;18.954;2024-01-06T09:38:01;99440.72;;;6.13;100.00
79645;BME280;69117;47.148;18.954;2024-01-06T09:41:03;99453.44;;;6.18;100.00
79645;BME280;69117;47.148;18.954;2024-01-06T09:44:04;99441.72;;;6.12;100.00
79645;BME280;69117;47.148;18.954;2024-01-06T09:47:08;99438.38;;;6.20;100.00
79645;BME280;69117;47.148;18.954;2024-01-06T09:50:13;99448.88;;;6.30;100.00
79645;BME280;69117;47.148;18.954;2024-01-06T09:53:15;99441.13;;;6.28;100.00
79645;BME280;69117;47.148;18.954;2024-01-06T09:56:18;99451.63;;;6.38;100.00
79645;BME280;69117;47.148;18.954;2024-01-06T09:59:19;99441.00;;;6.39;100.00
79645;BME280;69117;47.148;18.954;2024-01-06T10:02:21;99439.63;;;6.45;100.00
79645;BME280;69117;47.148;18.954;2024-01-06T10:05:24;99427.31;;;6.46;100.00
79645;BME280;69117;47.148;18.954;2024-01-06T10:08:26;99431.44;;;6.58;100.00
79645;BME280;69117;47.148;18.954;2024-01-06T10:11:28;99425.78;;;6.53;100.00
79645;BME280;69117;47.148;18.954;2024-01-06T10:14:30;99433.38;;;6.56;100.00
79645;BME280;69117;47.148;18.954;2024-01-06T10:17:32;99417.50;;;6.57;100.00
79645;BME280;69117;47.148;18.954;2024-01-06T10:20:34;99410.19;;;6.51;100.00
79645;BME280;69117;47.148;18.954;2024-01-06T10:23:36;99401.63;;;6.49;100.00
79645;BME280;69117;47.148;18.954;2024-01-06T10:26:38;99410.72;;;6.55;100.00
79645;BME280;69117;47.148;18.954;2024-01-06T10:29:41;99408.34;;;6.61;100.00
79645;BME280;69117;47.148;18.954;2024-01-06T10:32:44;99393.97;;;6.65;100.00
79645;BME280;69117;47.148;18.954;2024-01-06T10:35:46;99399.63;;;6.71;100.00
79645;BME280;69117;47.148;18.954;2024-01-06T10:38:49;99401.19;;;6.63;100.00
79645;BME280;69117;47.148;18.954;2024-01-06T10:41:54;99398.03;;;6.60;100.00
79645;BME280;69117;47.148;18.954;2024-01-06T10:44:56;99391.09;;;6.59;100.00
79645;BME280;69117;47.148;18.954;2024-01-06T10:47:59;99382.81;;;6.63;100.00
79645;BME280;69117;47.148;18.954;2024-01-06T10:51:01;99372.03;;;6.67;100.00
79645;BME280;69117;47.148;18.954;2024-01-06T10:54:11;99361.66;;;6.65;100.00
79645;BME280;69117;47.148;18.954;2024-01-06T10:57:15;99350.22;;;6.66;100.00
79645;BME280;69117;47.148;18.954;2024-01-06T11:00:17;99349.34;;;6.65;100.00
79645;BME280;69117;47.148;18.954;2024-01-06T11:03:19;99344.22;;;6.74;100.00
79645;BME280;69117;47.148;18.954;2024-01-06T11:06:23;99338.84;;;6.75;100.00
79645;BME280;69117;47.148;18.954;2024-01-06T11:09:29;99351.69;;;6.78;100.00
79645;BME280;69117;47.148;18.954;2024-01-06T11:12:32;99338.25;;;6.81;100.00
79645;BME280;69117;47.148;18.954;2024-01-06T11:15:42;99335.13;;;6.96;100.00
79645;BME280;69117;47.148;18.954;2024-01-06T11:18:47;99326.53;;;6.76;100.00
79645;BME280;69117;47.148;18.954;2024-01-06T11:21:49;99319.72;;;6.83;100.00
79645;BME280;69117;47.148;18.954;2024-01-06T11:24:56;99308.41;;;6.82;100.00
79645;BME280;69117;47.148;18.954;2024-01-06T11:28:07;99280.66;;;6.80;100.00
79645;BME280;69117;47.148;18.954;2024-01-06T11:31:09;99288.69;;;6.78;100.00
79645;BME280;69117;47.148;18.954;2024-01-06T11:34:14;99289.34;;;6.80;100.00
79645;BME280;69117;47.148;18.954;2024-01-06T11:37:35;99294.28;;;6.83;100.00
79645;BME280;69117;47.148;18.954;2024-01-06T11:40:38;99287.88;;;6.96;100.00
79645;BME280;69117;47.148;18.954;2024-01-06T11:43:39;99282.91;;;6.93;100.00
79645;BME280;69117;47.148;18.954;2024-01-06T11:46:42;99289.38;;;6.98;100.00
79645;BME280;69117;47.148;18.954;2024-01-06T11:49:46;99289.69;;;6.95;100.00
79645;BME280;69117;47.148;18.954;2024-01-06T11:52:49;99274.50;;;6.89;100.00
79645;BME280;69117;47.148;18.954;2024-01-06T11:55:52;99258.69;;;6.81;100.00
79645;BME280;69117;47.148;18.954;2024-01-06T11:58:54;99277.13;;;6.89;100.00
79645;BME280;69117;47.148;18.954;2024-01-06T12:01:56;99273.59;;;6.80;100.00
79645;BME280;69117;47.148;18.954;2024-01-06T12:04:58;99258.06;;;6.69;100.00
79645;BME280;69117;47.148;18.954;2024-01-06T12:08:01;99274.44;;;6.81;100.00
79645;BME280;69117;47.148;18.954;2024-01-06T12:11:05;99266.41;;;6.82;100.00
79645;BME280;69117;47.148;18.954;2024-01-06T12:14:07;99278.19;;;6.78;100.00
79645;BME280;69117;47.148;18.954;2024-01-06T12:17:10;99276.63;;;6.85;100.00
79645;BME280;69117;47.148;18.954;2024-01-06T12:20:11;99280.28;;;6.93;100.00
79645;BME280;69117;47.148;18.954;2024-01-06T12:23:24;99265.81;;;6.88;100.00
79645;BME280;69117;47.148;18.954;2024-01-06T12:26:25;99272.41;;;6.93;100.00
79645;BME280;69117;47.148;18.954;2024-01-06T12:29:28;99254.94;;;6.83;100.00
79645;BME280;69117;47.148;18.954;2024-01-06T12:32:33;99248.13;;;6.91;100.00
79645;BME280;69117;47.148;18.954;2024-01-06T12:35:35;99259.75;;;6.88;100.00
79645;BME280;69117;47.148;18.954;2024-01-06T12:38:37;99267.47;;;6.89;100.00
79645;BME280;69117;47.148;18.954;2024-01-06T12:41:42;99267.75;;;6.86;100.00
79645;BME280;69117;47.148;18.954;2024-01-06T12:44:44;99266.13;;;6.85;100.00
79645;BME280;69117;47.148;18.954;2024-01-06T12:47:46;99265.69;;;6.90;100.00
79645;BME280;69117;47.148;18.954;2024-01-06T12:50:48;99263.88;;;6.91;100.00
79645;BME280;69117;47.148;18.954;2024-01-06T12:53:49;99266.50;;;6.91;100.00
79645;BME280;69117;47.148;18.954;2024-01-06T12:56:51;99259.88;;;6.86;100.00
79645;BME280;69117;47.148;18.954;2024-01-06T12:59:53;99286.63;;;7.00;100.00
79645;BME280;69117;47.148;18.954;2024-01-06T13:02:55;99279.41;;;7.02;100.00
79645;BME280;69117;47.148;18.954;2024-01-06T13:05:57;99268.84;;;6.94;100.00
79645;BME280;69117;47.148;18.954;2024-01-06T13:08:59;99268.53;;;6.97;100.00
79645;BME280;69117;47.148;18.954;2024-01-06T13:12:01;99248.66;;;6.94;100.00
79645;BME280;69117;47.148;18.954;2024-01-06T13:15:03;99241.38;;;7.06;100.00
79645;BME280;69117;47.148;18.954;2024-01-06T13:18:05;99262.31;;;7.16;100.00
79645;BME280;69117;47.148;18.954;2024-01-06T13:21:07;99269.91;;;7.19;100.00
79645;BME280;69117;47.148;18.954;2024-01-06T13:24:09;99259.69;;;7.16;100.00
79645;BME280;69117;47.148;18.954;2024-01-06T13:27:11;99261.34;;;7.17;100.00
79645;BME280;69117;47.148;18.954;2024-01-06T13:30:15;99252.41;;;7.09;100.00
79645;BME280;69117;47.148;18.954;2024-01-06T13:33:19;99267.47;;;7.07;100.00
79645;BME280;69117;47.148;18.954;2024-01-06T13:36:22;99277.25;;;7.15;100.00
79645;BME280;69117;47.148;18.954;2024-01-06T13:39:24;99261.63;;;7.14;100.00
79645;BME280;69117;47.148;18.954;2024-01-06T13:42:25;99261.50;;;7.15;100.00
79645;BME280;69117;47.148;18.954;2024-01-06T13:45:27;99261.28;;;7.08;100.00
79645;BME280;69117;47.148;18.954;2024-01-06T13:48:31;99268.69;;;7.13;100.00
79645;BME280;69117;47.148;18.954;2024-01-06T13:51:33;99256.38;;;7.14;100.00
79645;BME280;69117;47.148;18.954;2024-01-06T13:54:35;99244.41;;;7.11;100.00
79645;BME280;69117;47.148;18.954;2024-01-06T13:57:37;99252.03;;;7.04;100.00
79645;BME280;69117;47.148;18.954;2024-01-06T14:00:43;99258.25;;;7.03;100.00
79645;BME280;69117;47.148;18.954;2024-01-06T14:03:45;99269.75;;;7.02;100.00
79645;BME280;69117;47.148;18.954;2024-01-06T14:06:47;99268.16;;;6.92;100.00
79645;BME280;69117;47.148;18.954;2024-01-06T14:09:50;99273.91;;;6.95;100.00
79645;BME280;69117;47.148;18.954;2024-01-06T14:12:53;99274.31;;;7.00;100.00
79645;BME280;69117;47.148;18.954;2024-01-06T14:15:55;99282.31;;;6.99;100.00
79645;BME280;69117;47.148;18.954;2024-01-06T14:18:57;99269.34;;;6.97;100.00
79645;BME280;69117;47.148;18.954;2024-01-06T14:21:59;99274.09;;;6.94;100.00
79645;BME280;69117;47.148;18.954;2024-01-06T14:25:02;99265.81;;;6.88;100.00
79645;BME280;69117;47.148;18.954;2024-01-06T14:28:07;99265.59;;;6.82;100.00
79645;BME280;69117;47.148;18.954;2024-01-06T14:31:08;99257.84;;;6.80;100.00
79645;BME280;69117;47.148;18.954;2024-01-06T14:34:12;99274.16;;;6.84;100.00
79645;BME280;69117;47.148;18.954;2024-01-06T14:37:14;99258.00;;;6.79;100.00
79645;BME280;69117;47.148;18.954;2024-01-06T14:40:16;99246.59;;;6.70;100.00
79645;BME280;69117;47.148;18.954;2024-01-06T14:43:18;99258.31;;;6.76;100.00
79645;BME280;69117;47.148;18.954;2024-01-06T14:46:19;99264.38;;;6.76;100.00
79645;BME280;69117;47.148;18.954;2024-01-06T14:49:21;99242.22;;;6.61;100.00
79645;BME280;69117;47.148;18.954;2024-01-06T14:52:23;99246.34;;;6.63;100.00
79645;BME280;69117;47.148;18.954;2024-01-06T14:55:25;99261.94;;;6.65;100.00
79645;BME280;69117;47.148;18.954;2024-01-06T14:58:26;99255.34;;;6.61;100.00
79645;BME280;69117;47.148;18.954;2024-01-06T15:01:28;99263.75;;;6.64;100.00
79645;BME280;69117;47.148;18.954;2024-01-06T15:04:30;99265.03;;;6.60;100.00
79645;BME280;69117;47.148;18.954;2024-01-06T15:07:32;99239.13;;;6.48;100.00
79645;BME280;69117;47.148;18.954;2024-01-06T15:10:34;99244.91;;;6.51;100.00
79645;BME280;69117;47.148;18.954;2024-01-06T15:13:36;99254.81;;;6.57;100.00
79645;BME280;69117;47.148;18.954;2024-01-06T15:16:37;99255.41;;;6.51;100.00
79645;BME280;69117;47.148;18.954;2024-01-06T15:19:40;99251.97;;;6.51;100.00
79645;BME280;69117;47.148;18.954;2024-01-06T15:22:43;99262.44;;;6.51;100.00
79645;BME280;69117;47.148;18.954;2024-01-06T15:25:45;99257.88;;;6.53;100.00
79645;BME280;69117;47.148;18.954;2024-01-06T15:28:48;99262.44;;;6.51;100.00
79645;BME280;69117;47.148;18.954;2024-01-06T15:31:49;99250.16;;;6.51;100.00
79645;BME280;69117;47.148;18.954;2024-01-06T15:34:54;99249.63;;;6.48;100.00
79645;BME280;69117;47.148;18.954;2024-01-06T15:37:55;99248.66;;;6.49;100.00
79645;BME280;69117;47.148;18.954;2024-01-06T15:40:57;99246.31;;;6.46;100.00
79645;BME280;69117;47.148;18.954;2024-01-06T15:43:59;99244.78;;;6.43;100.00
79645;BME280;69117;47.148;18.954;2024-01-06T15:47:00;99232.56;;;6.34;100.00
79645;BME280;69117;47.148;18.954;2024-01-06T15:50:03;99242.88;;;6.45;100.00
79645;BME280;69117;47.148;18.954;2024-01-06T15:53:05;99237.38;;;6.38;100.00